Time;durP1;ratioP1;P1;durP2;ratioP2;P2;SDS_P1;SDS_P2;PMS_P1;PMS_P2;Temp;Humidity;BMP_temperature;BMP_pressure;BME280_temperature;BME280_humidity;BME280_pressure;Samples;Min_cycle;Max_cycle;Signal;HPM_P1;HPM_P2
2020/12/11 00:00:25;;;;;;;21.20;14.60;;;;;;;;;;5059814;28;20333;-83
2020/12/11 00:02:52;;;;;;;20.27;15.18;;;;;;;;;;5059694;28;20562;-83
2020/12/11 00:05:19;;;;;;;21.30;15.30;;;;;;;;;;5024986;28;20194;-82
2020/12/11 00:07:47;;;;;;;18.23;13.63;;;;;;;;;;5059600;28;20562;-83
2020/12/11 00:10:15;;;;;;;18.42;14.93;;;;;;;;;;5059302;28;20205;-83
2020/12/11 00:12:42;;;;;;;20.15;13.88;;;;;;;;;;5025629;28;20228;-83
2020/12/11 00:15:10;;;;;;;20.67;14.68;;;;;;;;;;5059532;28;20202;-82
2020/12/11 00:17:37;;;;;;;21.00;14.98;;;;;;;;;;5059544;28;20198;-82
2020/12/11 00:20:05;;;;;;;21.85;14.30;;;;;;;;;;5059059;28;20217;-82
2020/12/11 00:22:32;;;;;;;19.05;14.63;;;;;;;;;;5059498;28;20267;-83
2020/12/11 00:25:00;;;;;;;18.13;14.45;;;;;;;;;;5059606;28;20186;-83
2020/12/11 00:27:27;;;;;;;21.02;15.02;;;;;;;;;;5059522;28;20200;-82
2020/12/11 00:29:54;;;;;;;20.63;14.40;;;;;;;;;;5059186;28;20550;-83
2020/12/11 00:32:21;;;;;;;23.17;15.75;;;;;;;;;;5059197;28;20202;-83
2020/12/11 00:34:48;;;;;;;19.13;13.77;;;;;;;;;;5059449;28;20197;-83
2020/12/11 00:37:14;;;;;;;25.75;16.15;;;;;;;;;;5058772;28;20193;-83
2020/12/11 00:39:41;;;;;;;20.27;14.52;;;;;;;;;;5058638;28;20202;-84
2020/12/11 00:42:09;;;;;;;23.73;16.20;;;;;;;;;;5058949;28;20193;-83
2020/12/11 00:44:36;;;;;;;19.10;14.38;;;;;;;;;;5059224;28;20198;-82
2020/12/11 00:47:04;;;;;;;19.30;14.73;;;;;;;;;;5058393;28;20202;-83
2020/12/11 00:49:31;;;;;;;23.35;16.30;;;;;;;;;;5059174;28;20213;-83
2020/12/11 00:51:58;;;;;;;20.52;15.00;;;;;;;;;;5059035;28;20213;-82
2020/12/11 00:54:25;;;;;;;19.75;14.15;;;;;;;;;;5024659;28;20218;-84
2020/12/11 00:56:52;;;;;;;21.85;15.13;;;;;;;;;;5058474;28;20193;-84
2020/12/11 00:59:20;;;;;;;20.67;14.20;;;;;;;;;;5058427;28;20226;-83
2020/12/11 01:01:47;;;;;;;22.45;15.30;;;;;;;;;;5058548;28;20570;-82
2020/12/11 01:04:13;;;;;;;22.27;15.80;;;;;;;;;;5058848;28;20457;-83
2020/12/11 01:06:40;;;;;;;26.63;18.15;;;;;;;;;;5058394;28;20197;-82
2020/12/11 01:09:07;;;;;;;22.20;16.15;;;;;;;;;;5058347;28;20197;-83
2020/12/11 01:11:34;;;;;;;24.45;17.55;;;;;;;;;;5058508;28;20206;-83
2020/12/11 01:14:01;;;;;;;23.98;16.77;;;;;;;;;;5058607;28;20229;-82
2020/12/11 01:16:29;;;;;;;24.05;16.30;;;;;;;;;;5057773;28;20201;-83
2020/12/11 01:18:57;;;;;;;23.55;15.82;;;;;;;;;;5058326;28;20229;-83
2020/12/11 01:21:24;;;;;;;22.45;16.83;;;;;;;;;;5058960;28;20456;-82
2020/12/11 01:23:51;;;;;;;28.20;18.00;;;;;;;;;;5058557;28;20482;-83
2020/12/11 01:26:18;;;;;;;24.80;17.13;;;;;;;;;;5058126;28;20204;-82
2020/12/11 01:28:45;;;;;;;24.02;15.77;;;;;;;;;;5058579;28;20204;-83
2020/12/11 01:31:16;;;;;;;21.20;15.30;;;;;;;;;;5058149;28;20198;-83
2020/12/11 01:33:46;;;;;;;23.23;15.15;;;;;;;;;;5058275;28;20209;-83
2020/12/11 01:36:13;;;;;;;20.33;14.23;;;;;;;;;;5058325;28;20198;-83
2020/12/11 01:38:40;;;;;;;21.73;14.68;;;;;;;;;;5058265;28;20182;-83
2020/12/11 01:41:08;;;;;;;19.20;14.18;;;;;;;;;;5058235;28;20182;-82
2020/12/11 01:43:35;;;;;;;22.23;15.10;;;;;;;;;;5058235;28;20193;-82
2020/12/11 01:46:01;;;;;;;18.55;13.30;;;;;;;;;;5057953;28;20186;-82
2020/12/11 01:48:28;;;;;;;20.25;14.48;;;;;;;;;;5058145;28;20472;-83
2020/12/11 01:50:56;;;;;;;24.48;16.13;;;;;;;;;;5057827;28;20204;-82
2020/12/11 01:53:23;;;;;;;22.17;15.85;;;;;;;;;;5023961;28;20472;-83
2020/12/11 01:55:51;;;;;;;19.83;15.25;;;;;;;;;;5057766;28;20198;-82
2020/12/11 01:58:21;;;;;;;21.90;15.15;;;;;;;;;;5057870;28;20571;-82
2020/12/11 02:00:50;;;;;;;20.40;14.10;;;;;;;;;;5040256;28;20623;-83
2020/12/11 02:03:17;;;;;;;25.17;16.48;;;;;;;;;;5058364;28;20426;-82
2020/12/11 02:05:44;;;;;;;17.85;14.52;;;;;;;;;;5057386;28;20208;-82
2020/12/11 02:08:14;;;;;;;21.17;14.93;;;;;;;;;;5057779;28;20208;-83
2020/12/11 02:10:46;;;;;;;22.75;14.13;;;;;;;;;;5057803;28;20213;-82
2020/12/11 02:13:13;;;;;;;19.55;14.18;;;;;;;;;;5057541;28;20468;-84
2020/12/11 02:15:41;;;;;;;19.13;13.40;;;;;;;;;;5057964;28;20182;-83
2020/12/11 02:18:08;;;;;;;17.00;13.68;;;;;;;;;;5057534;28;20178;-82
2020/12/11 02:20:35;;;;;;;17.42;12.73;;;;;;;;;;5057652;28;20593;-83
2020/12/11 02:23:03;;;;;;;17.55;13.48;;;;;;;;;;5057511;28;20193;-83
2020/12/11 02:25:30;;;;;;;16.38;12.98;;;;;;;;;;5057750;28;20202;-83
2020/12/11 02:27:57;;;;;;;16.77;13.00;;;;;;;;;;5058457;28;20186;-84
2020/12/11 02:30:23;;;;;;;18.58;13.23;;;;;;;;;;5061768;28;20189;-83
2020/12/11 02:32:50;;;;;;;17.85;13.00;;;;;;;;;;5061363;28;20208;-84
2020/12/11 02:35:17;;;;;;;17.98;12.38;;;;;;;;;;5061674;28;20220;-83
2020/12/11 02:37:44;;;;;;;15.02;12.07;;;;;;;;;;5061486;28;20190;-83
2020/12/11 02:40:12;;;;;;;15.48;11.88;;;;;;;;;;5027508;28;20578;-83
2020/12/11 02:42:39;;;;;;;17.75;12.48;;;;;;;;;;5061675;28;20186;-82
2020/12/11 02:45:06;;;;;;;15.40;13.07;;;;;;;;;;5061532;28;20182;-83
2020/12/11 02:47:33;;;;;;;13.98;10.20;;;;;;;;;;5061445;28;20204;-83
2020/12/11 02:50:01;;;;;;;16.00;11.85;;;;;;;;;;5061164;28;20622;-83
2020/12/11 02:52:28;;;;;;;15.68;10.65;;;;;;;;;;5061308;28;20201;-83
2020/12/11 02:54:55;;;;;;;15.68;11.38;;;;;;;;;;5061199;28;20205;-82
2020/12/11 02:57:23;;;;;;;14.82;11.68;;;;;;;;;;5061130;28;20202;-83
2020/12/11 02:59:50;;;;;;;14.80;11.88;;;;;;;;;;5061013;28;20225;-84
2020/12/11 03:02:17;;;;;;;12.30;10.48;;;;;;;;;;5060532;28;20198;-82
2020/12/11 03:04:43;;;;;;;13.80;10.98;;;;;;;;;;5061129;28;20182;-84
2020/12/11 03:07:10;;;;;;;14.85;10.23;;;;;;;;;;5060655;28;20598;-84
2020/12/11 03:09:37;;;;;;;13.00;9.77;;;;;;;;;;5060358;28;20201;-84
2020/12/11 03:12:04;;;;;;;13.18;10.75;;;;;;;;;;5061515;28;20200;-82
2020/12/11 03:14:32;;;;;;;13.63;11.10;;;;;;;;;;5061397;28;20217;-83
2020/12/11 03:16:59;;;;;;;12.57;9.77;;;;;;;;;;5060763;28;20198;-83
2020/12/11 03:19:26;;;;;;;11.38;9.20;;;;;;;;;;5060501;28;20221;-83
2020/12/11 03:21:53;;;;;;;11.63;9.10;;;;;;;;;;5060765;28;20201;-82
2020/12/11 03:24:20;;;;;;;11.50;9.07;;;;;;;;;;5060487;28;20202;-83
2020/12/11 03:26:47;;;;;;;15.80;11.15;;;;;;;;;;5060724;28;20201;-83
2020/12/11 03:29:14;;;;;;;13.75;10.23;;;;;;;;;;5060817;28;20213;-83
2020/12/11 03:31:41;;;;;;;11.15;9.23;;;;;;;;;;5061151;28;20190;-83
2020/12/11 03:34:08;;;;;;;12.32;10.65;;;;;;;;;;5060054;28;20472;-83
2020/12/11 03:36:35;;;;;;;10.98;9.57;;;;;;;;;;5060264;28;20191;-83
2020/12/11 03:39:02;;;;;;;10.93;9.70;;;;;;;;;;5060223;28;20206;-83
2020/12/11 03:41:29;;;;;;;12.38;10.10;;;;;;;;;;5059355;28;20231;-84
2020/12/11 03:43:56;;;;;;;11.43;9.30;;;;;;;;;;5060339;28;20186;-82
2020/12/11 03:46:23;;;;;;;12.98;11.50;;;;;;;;;;5060418;28;20197;-82
2020/12/11 03:48:51;;;;;;;13.63;10.38;;;;;;;;;;5060364;28;20229;-82
2020/12/11 03:51:19;;;;;;;11.65;9.25;;;;;;;;;;5026188;28;20194;-81
2020/12/11 03:53:47;;;;;;;15.95;11.23;;;;;;;;;;5060106;28;20212;-82
2020/12/11 03:56:15;;;;;;;12.95;10.73;;;;;;;;;;5060193;28;20479;-83
2020/12/11 03:58:42;;;;;;;11.23;9.45;;;;;;;;;;5059983;28;20186;-82
2020/12/11 04:01:12;;;;;;;11.43;9.10;;;;;;;;;;5060378;28;20194;-83
2020/12/11 04:03:39;;;;;;;12.68;10.43;;;;;;;;;;5060039;28;20461;-82
2020/12/11 04:06:08;;;;;;;10.35;8.63;;;;;;;;;;5059931;28;20197;-82
2020/12/11 04:08:35;;;;;;;10.85;8.00;;;;;;;;;;5059705;28;20186;-82
2020/12/11 04:11:06;;;;;;;10.52;8.50;;;;;;;;;;5059868;28;20470;-83
2020/12/11 04:13:33;;;;;;;11.85;10.07;;;;;;;;;;5059828;28;20197;-82
2020/12/11 04:16:00;;;;;;;10.77;8.50;;;;;;;;;;5059711;28;20225;-83
2020/12/11 04:18:28;;;;;;;10.52;8.80;;;;;;;;;;5059542;28;20218;-82
2020/12/11 04:20:56;;;;;;;12.07;10.38;;;;;;;;;;5059391;28;20185;-82
2020/12/11 04:23:24;;;;;;;12.73;9.02;;;;;;;;;;5059665;28;20190;-82
2020/12/11 04:25:51;;;;;;;12.65;10.07;;;;;;;;;;5059392;28;20182;-82
2020/12/11 04:28:18;;;;;;;15.63;10.75;;;;;;;;;;5025415;28;20202;-82
2020/12/11 04:30:45;;;;;;;11.32;8.52;;;;;;;;;;5059145;28;20190;-81
2020/12/11 04:33:12;;;;;;;10.05;8.57;;;;;;;;;;5059340;28;20198;-84
2020/12/11 04:35:39;;;;;;;11.80;8.90;;;;;;;;;;5058778;28;20232;-84
2020/12/11 04:38:06;;;;;;;11.57;9.18;;;;;;;;;;5058921;28;20213;-82
2020/12/11 04:40:34;;;;;;;11.85;9.45;;;;;;;;;;5059013;28;20550;-82
2020/12/11 04:43:02;;;;;;;11.15;8.55;;;;;;;;;;5059096;28;20198;-81
2020/12/11 04:45:29;;;;;;;12.43;10.68;;;;;;;;;;5059204;28;20194;-86
2020/12/11 04:47:56;;;;;;;10.35;9.18;;;;;;;;;;5058913;28;20555;-89
2020/12/11 04:50:23;;;;;;;11.57;9.07;;;;;;;;;;5058994;28;20226;-89
2020/12/11 04:52:50;;;;;;;12.80;10.13;;;;;;;;;;5059230;28;20208;-88
2020/12/11 04:55:19;;;;;;;12.13;10.38;;;;;;;;;;5055176;28;20205;-90
2020/12/11 04:57:49;;;;;;;11.75;9.52;;;;;;;;;;5058825;28;20194;-89
2020/12/11 05:00:17;;;;;;;10.68;8.95;;;;;;;;;;5058810;28;20618;-89
2020/12/11 05:02:45;;;;;;;12.80;8.35;;;;;;;;;;5058958;28;20183;-88
2020/12/11 05:05:14;;;;;;;14.20;10.13;;;;;;;;;;5059387;28;20182;-89
2020/12/11 05:07:42;;;;;;;11.90;9.43;;;;;;;;;;5059029;28;20453;-90
2020/12/11 05:10:10;;;;;;;11.85;9.52;;;;;;;;;;5060046;28;20197;-91
2020/12/11 05:12:38;;;;;;;11.20;10.05;;;;;;;;;;5058811;28;20179;-89
2020/12/11 05:15:09;;;;;;;15.35;11.52;;;;;;;;;;5058619;28;20564;-90
2020/12/11 05:17:37;;;;;;;13.10;11.25;;;;;;;;;;5059347;28;20190;-90
2020/12/11 05:20:05;;;;;;;13.20;10.32;;;;;;;;;;5058789;28;20229;-88
2020/12/11 05:22:34;;;;;;;13.60;10.80;;;;;;;;;;5058809;28;20190;-89
2020/12/11 05:25:01;;;;;;;10.38;9.25;;;;;;;;;;5058799;28;20186;-89
2020/12/11 05:27:34;;;;;;;11.82;9.85;;;;;;;;;;5058957;28;20215;-90
2020/12/11 05:30:22;;;;;;;11.85;10.13;;;;;;;;;;5059501;28;20447;-89
2020/12/11 05:32:51;;;;;;;10.00;9.00;;;;;;;;;;5058554;28;20559;-90
2020/12/11 05:35:25;;;;;;;14.70;10.93;;;;;;;;;;5058578;28;20210;-88
2020/12/11 05:37:56;;;;;;;11.77;9.30;;;;;;;;;;5058388;28;20182;-89
2020/12/11 05:40:28;;;;;;;13.38;10.35;;;;;;;;;;5058613;28;20174;-87
2020/12/11 05:43:16;;;;;;;12.20;10.88;;;;;;;;;;5058616;28;20192;-88
2020/12/11 05:45:54;;;;;;;14.77;10.85;;;;;;;;;;5058528;28;20186;-92
2020/12/11 05:48:23;;;;;;;14.25;11.25;;;;;;;;;;5058682;28;20201;-91
2020/12/11 05:50:50;;;;;;;14.07;10.23;;;;;;;;;;5059405;28;20208;-91
2020/12/11 05:53:18;;;;;;;13.82;10.70;;;;;;;;;;5058733;28;20190;-90
2020/12/11 05:55:45;;;;;;;13.50;10.55;;;;;;;;;;5058088;28;20206;-90
2020/12/11 05:58:12;;;;;;;12.80;10.38;;;;;;;;;;5058612;28;20552;-93
2020/12/11 06:00:41;;;;;;;13.85;10.98;;;;;;;;;;5058129;28;20231;-91
2020/12/11 06:03:09;;;;;;;13.18;10.77;;;;;;;;;;5059466;28;20182;-92
2020/12/11 06:05:40;;;;;;;11.77;9.75;;;;;;;;;;5063249;28;20548;-92
2020/12/11 06:08:12;;;;;;;11.63;9.73;;;;;;;;;;5062467;28;20182;-90
2020/12/11 06:10:40;;;;;;;14.57;11.15;;;;;;;;;;5062483;28;20181;-93
2020/12/11 06:13:08;;;;;;;14.48;11.07;;;;;;;;;;5062254;28;20174;-91
2020/12/11 06:15:41;;;;;;;14.32;12.18;;;;;;;;;;5062085;28;20215;-92
2020/12/11 06:18:11;;;;;;;15.57;11.55;;;;;;;;;;5062609;28;20198;-92
2020/12/11 06:20:39;;;;;;;14.60;11.18;;;;;;;;;;5062894;28;20202;-91
2020/12/11 06:23:26;;;;;;;13.18;10.63;;;;;;;;;;5062037;28;20547;-93
2020/12/11 06:25:55;;;;;;;14.93;11.65;;;;;;;;;;5062614;28;20272;-92
2020/12/11 06:28:40;;;;;;;14.93;11.95;;;;;;;;;;5062167;28;20210;-92
2020/12/11 06:31:08;;;;;;;14.65;11.13;;;;;;;;;;5061833;28;20502;-92
2020/12/11 06:33:38;;;;;;;14.32;10.93;;;;;;;;;;5062132;28;20182;-92
2020/12/11 06:36:07;;;;;;;14.38;10.73;;;;;;;;;;5061944;28;20202;-91
2020/12/11 06:38:45;;;;;;;12.60;10.02;;;;;;;;;;5062007;28;20182;-90
2020/12/11 06:41:14;;;;;;;15.77;11.80;;;;;;;;;;5061877;28;20193;-95
2020/12/11 06:43:43;;;;;;;13.82;10.63;;;;;;;;;;5062922;28;20194;-94
2020/12/11 06:46:13;;;;;;;14.93;10.57;;;;;;;;;;5061978;28;20194;-91
2020/12/11 06:49:12;;;;;;;12.15;10.40;;;;;;;;;;5061246;28;20603;-91
2020/12/11 06:52:12;;;;;;;13.40;10.70;;;;;;;;;;5061944;28;20228;-92
2020/12/11 06:54:55;;;;;;;14.63;10.00;;;;;;;;;;5061829;28;20200;-92
2020/12/11 06:57:40;;;;;;;14.27;10.90;;;;;;;;;;5061814;28;20201;-91
2020/12/11 07:00:35;;;;;;;15.20;11.90;;;;;;;;;;5061720;28;20226;-90
2020/12/11 07:03:30;;;;;;;12.65;11.05;;;;;;;;;;5061989;28;20607;-91
2020/12/11 07:06:12;;;;;;;13.10;10.73;;;;;;;;;;5061852;28;20260;-92
2020/12/11 07:08:39;;;;;;;13.48;10.25;;;;;;;;;;5061684;28;20540;-93
2020/12/11 07:11:14;;;;;;;15.32;11.25;;;;;;;;;;5061290;28;20192;-95
2020/12/11 07:13:51;;;;;;;12.35;10.57;;;;;;;;;;5061715;28;20209;-92
2020/12/11 07:16:19;;;;;;;14.82;11.10;;;;;;;;;;5061527;28;20228;-94
2020/12/11 07:18:47;;;;;;;12.70;11.32;;;;;;;;;;5060728;28;20263;-91
2020/12/11 07:21:15;;;;;;;13.73;11.40;;;;;;;;;;5061931;28;20206;-91
2020/12/11 07:23:42;;;;;;;13.75;11.10;;;;;;;;;;5061545;28;20289;-92
2020/12/11 07:26:11;;;;;;;13.45;11.48;;;;;;;;;;5061250;28;20236;-94
2020/12/11 07:28:38;;;;;;;14.48;12.07;;;;;;;;;;5061806;28;20249;-92
2020/12/11 07:31:09;;;;;;;14.10;10.98;;;;;;;;;;5061215;28;20190;-92
2020/12/11 07:33:36;;;;;;;13.80;11.48;;;;;;;;;;5061666;28;20202;-91
2020/12/11 07:36:04;;;;;;;14.63;11.95;;;;;;;;;;5060947;28;20228;-91
2020/12/11 07:38:33;;;;;;;14.50;10.95;;;;;;;;;;5061370;28;20189;-91
2020/12/11 07:41:06;;;;;;;15.25;11.70;;;;;;;;;;5060489;28;20200;-91
2020/12/11 07:43:33;;;;;;;14.75;12.13;;;;;;;;;;5060565;28;20204;-91
2020/12/11 07:46:00;;;;;;;18.60;13.32;;;;;;;;;;5060549;28;20247;-94
2020/12/11 07:48:27;;;;;;;18.92;14.15;;;;;;;;;;5060650;28;20500;-92
2020/12/11 07:51:01;;;;;;;16.63;12.70;;;;;;;;;;5060759;28;20202;-91
2020/12/11 07:53:28;;;;;;;13.65;10.93;;;;;;;;;;5060954;28;20194;-91
2020/12/11 07:55:56;;;;;;;16.25;12.63;;;;;;;;;;5060924;28;20218;-91
2020/12/11 07:58:26;;;;;;;17.98;13.68;;;;;;;;;;5060228;28;20455;-93
2020/12/11 08:00:53;;;;;;;15.82;12.85;;;;;;;;;;5060535;28;20316;-90
2020/12/11 08:03:20;;;;;;;16.13;11.90;;;;;;;;;;5060369;28;20451;-93
2020/12/11 08:05:47;;;;;;;19.80;13.52;;;;;;;;;;5060099;28;20543;-92
2020/12/11 08:08:14;;;;;;;16.75;12.63;;;;;;;;;;5060516;28;20243;-89
2020/12/11 08:10:43;;;;;;;17.63;12.48;;;;;;;;;;5060985;28;20449;-92
2020/12/11 08:13:14;;;;;;;16.55;14.13;;;;;;;;;;5060289;28;20194;-92
2020/12/11 08:15:42;;;;;;;18.58;14.82;;;;;;;;;;5060820;28;20602;-90
2020/12/11 08:18:12;;;;;;;21.27;16.23;;;;;;;;;;5060556;28;20229;-91
2020/12/11 08:20:48;;;;;;;19.17;13.70;;;;;;;;;;5060553;28;20197;-92
2020/12/11 08:23:25;;;;;;;15.60;12.85;;;;;;;;;;5060157;28;20515;-90
2020/12/11 08:26:09;;;;;;;19.65;14.18;;;;;;;;;;5059963;28;20502;-92
2020/12/11 08:28:38;;;;;;;17.67;13.55;;;;;;;;;;5060565;28;20251;-92
2020/12/11 08:31:26;;;;;;;20.35;13.85;;;;;;;;;;5060259;28;20178;-92
2020/12/11 08:34:08;;;;;;;22.95;14.73;;;;;;;;;;5059977;28;20178;-93
2020/12/11 08:36:38;;;;;;;20.08;13.95;;;;;;;;;;5060018;28;20218;-93
2020/12/11 08:39:15;;;;;;;16.58;12.65;;;;;;;;;;5060139;28;20193;-91
2020/12/11 08:41:58;;;;;;;16.48;14.15;;;;;;;;;;5060294;28;20524;-92
2020/12/11 08:44:33;;;;;;;16.20;12.85;;;;;;;;;;5060327;28;20275;-93
2020/12/11 08:47:25;;;;;;;18.40;13.25;;;;;;;;;;5059631;28;20209;-93
2020/12/11 08:49:54;;;;;;;21.80;11.68;;;;;;;;;;5059661;28;20218;-93
2020/12/11 08:52:21;;;;;;;19.60;13.55;;;;;;;;;;5060210;28;20221;-91
2020/12/11 08:54:51;;;;;;;18.17;13.20;;;;;;;;;;5059625;28;20182;-92
2020/12/11 08:57:18;;;;;;;19.25;13.38;;;;;;;;;;5059814;28;20218;-93
2020/12/11 08:59:46;;;;;;;21.33;13.85;;;;;;;;;;5059383;28;20316;-90
2020/12/11 09:02:13;;;;;;;17.70;12.27;;;;;;;;;;5059936;28;20202;-89
2020/12/11 09:04:40;;;;;;;20.73;15.07;;;;;;;;;;5058955;28;20571;-92
2020/12/11 09:07:07;;;;;;;17.70;12.98;;;;;;;;;;5059332;28;20178;-90
2020/12/11 09:09:34;;;;;;;17.92;13.30;;;;;;;;;;5058912;28;20236;-93
2020/12/11 09:12:01;;;;;;;17.02;12.48;;;;;;;;;;5059564;28;20194;-93
2020/12/11 09:14:28;;;;;;;21.42;13.45;;;;;;;;;;5059712;28;20431;-92
2020/12/11 09:16:56;;;;;;;17.27;12.95;;;;;;;;;;5058995;28;20205;-92
2020/12/11 09:19:23;;;;;;;18.73;13.68;;;;;;;;;;5059081;28;20221;-89
2020/12/11 09:21:50;;;;;;;18.92;14.43;;;;;;;;;;5059158;28;20206;-91
2020/12/11 09:24:17;;;;;;;15.82;12.10;;;;;;;;;;5058919;28;20469;-93
2020/12/11 09:26:44;;;;;;;18.42;14.15;;;;;;;;;;5058675;28;20204;-90
2020/12/11 09:29:13;;;;;;;16.15;11.57;;;;;;;;;;5058870;28;20178;-92
2020/12/11 09:31:43;;;;;;;15.35;12.05;;;;;;;;;;5059446;28;20198;-92
2020/12/11 09:34:11;;;;;;;16.83;14.00;;;;;;;;;;5059293;28;20202;-91
2020/12/11 09:36:42;;;;;;;18.30;12.15;;;;;;;;;;5058408;28;20205;-94
2020/12/11 09:39:10;;;;;;;19.73;13.20;;;;;;;;;;5058232;28;20189;-92
2020/12/11 09:41:39;;;;;;;19.23;13.52;;;;;;;;;;5058856;28;20276;-91
2020/12/11 09:46:58;;;;;;;17.77;13.18;;;;;;;;;;4997917;28;20203;-92
2020/12/11 09:49:33;;;;;;;17.90;12.63;;;;;;;;;;4998713;28;20219;-91
2020/12/11 09:54:41;;;;;;;21.80;13.75;;;;;;;;;;4997006;28;20196;-93
2020/12/11 09:57:08;;;;;;;17.63;12.43;;;;;;;;;;4998337;28;20223;-94
2020/12/11 09:59:46;;;;;;;16.77;12.82;;;;;;;;;;4997486;28;20224;-94
2020/12/11 10:02:19;;;;;;;16.27;12.75;;;;;;;;;;4998400;28;20219;-93
2020/12/11 10:04:47;;;;;;;17.13;13.68;;;;;;;;;;4998053;28;20223;-88
2020/12/11 10:07:14;;;;;;;18.02;13.13;;;;;;;;;;4998288;28;20196;-89
2020/12/11 10:09:42;;;;;;;18.70;13.00;;;;;;;;;;4997548;28;20184;-90
2020/12/11 10:12:10;;;;;;;21.50;15.95;;;;;;;;;;4997999;28;20582;-89
2020/12/11 10:14:39;;;;;;;18.67;13.68;;;;;;;;;;4998300;28;20211;-91
2020/12/11 10:17:06;;;;;;;21.75;15.57;;;;;;;;;;4998280;28;20584;-90
2020/12/11 10:19:33;;;;;;;18.27;15.02;;;;;;;;;;4997479;28;20329;-89
2020/12/11 10:22:00;;;;;;;21.58;15.18;;;;;;;;;;4997328;28;20486;-90
2020/12/11 10:24:27;;;;;;;23.15;15.73;;;;;;;;;;5036564;28;20220;-88
2020/12/11 10:26:54;;;;;;;18.08;13.63;;;;;;;;;;5058104;28;20182;-88
2020/12/11 10:29:22;;;;;;;20.38;13.40;;;;;;;;;;5058136;28;20182;-88
2020/12/11 10:31:49;;;;;;;21.38;14.93;;;;;;;;;;5057766;28;20190;-88
2020/12/11 10:34:17;;;;;;;19.60;13.80;;;;;;;;;;5058083;28;20493;-90
2020/12/11 10:36:45;;;;;;;19.08;13.50;;;;;;;;;;5058114;28;20313;-89
2020/12/11 10:39:13;;;;;;;19.85;14.35;;;;;;;;;;5058061;28;20182;-92
2020/12/11 10:41:40;;;;;;;21.02;12.82;;;;;;;;;;5057753;28;20193;-91
2020/12/11 10:44:07;;;;;;;17.40;14.02;;;;;;;;;;5058320;28;20185;-90
2020/12/11 10:46:34;;;;;;;17.92;13.05;;;;;;;;;;5058209;28;20190;-88
2020/12/11 10:49:01;;;;;;;22.05;15.38;;;;;;;;;;5058129;28;20221;-88
2020/12/11 10:51:28;;;;;;;20.33;14.80;;;;;;;;;;5061734;28;20188;-90
2020/12/11 10:53:55;;;;;;;22.05;15.18;;;;;;;;;;5061824;28;20194;-91
2020/12/11 10:56:22;;;;;;;21.73;13.70;;;;;;;;;;5061387;28;20273;-87
2020/12/11 10:58:49;;;;;;;19.55;14.52;;;;;;;;;;5060820;28;20217;-91
2020/12/11 11:01:16;;;;;;;21.38;15.18;;;;;;;;;;5062389;28;20182;-87
2020/12/11 11:03:43;;;;;;;19.73;14.45;;;;;;;;;;5061545;28;20285;-89
2020/12/11 11:06:20;;;;;;;19.05;13.07;;;;;;;;;;5061281;28;20548;-87
2020/12/11 11:08:54;;;;;;;26.02;14.55;;;;;;;;;;5061977;28;20208;-90
2020/12/11 11:11:24;;;;;;;18.65;14.05;;;;;;;;;;5061868;28;20238;-89
2020/12/11 11:14:09;;;;;;;18.55;14.43;;;;;;;;;;5061745;28;20205;-87
2020/12/11 11:16:51;;;;;;;19.45;14.52;;;;;;;;;;5061923;28;20280;-89
2020/12/11 11:19:23;;;;;;;18.27;15.07;;;;;;;;;;5060929;28;20220;-87
2020/12/11 11:22:11;;;;;;;22.58;16.17;;;;;;;;;;5061869;28;20281;-91
2020/12/11 11:25:12;;;;;;;21.33;14.65;;;;;;;;;;5061319;28;20221;-90
2020/12/11 11:27:42;;;;;;;18.38;12.32;;;;;;;;;;5060833;28;20186;-90
2020/12/11 11:30:09;;;;;;;19.83;14.05;;;;;;;;;;5061766;28;20198;-89
2020/12/11 11:32:36;;;;;;;19.38;13.77;;;;;;;;;;5061333;28;20251;-89
2020/12/11 11:35:03;;;;;;;23.02;15.93;;;;;;;;;;5060672;28;20196;-87
2020/12/11 11:37:30;;;;;;;23.33;12.82;;;;;;;;;;5060846;28;20210;-86
2020/12/11 11:39:57;;;;;;;20.60;13.50;;;;;;;;;;5060816;28;20192;-89
2020/12/11 11:42:24;;;;;;;21.55;14.52;;;;;;;;;;5060533;28;20209;-86
2020/12/11 11:44:55;;;;;;;16.02;13.07;;;;;;;;;;5060436;28;20185;-89
2020/12/11 11:47:23;;;;;;;23.75;14.60;;;;;;;;;;5060964;28;20289;-87
2020/12/11 11:50:10;;;;;;;21.33;15.57;;;;;;;;;;5060591;28;20225;-89
2020/12/11 11:52:39;;;;;;;21.83;15.95;;;;;;;;;;5060499;28;20178;-88
2020/12/11 11:55:07;;;;;;;22.33;14.55;;;;;;;;;;5061106;28;20461;-89
2020/12/11 11:57:34;;;;;;;22.90;15.98;;;;;;;;;;5060827;28;20484;-91
2020/12/11 12:00:03;;;;;;;18.55;13.27;;;;;;;;;;5060329;28;20236;-87
2020/12/11 12:02:30;;;;;;;17.98;13.68;;;;;;;;;;5059726;28;20273;-88
2020/12/11 12:04:57;;;;;;;20.27;13.88;;;;;;;;;;5060168;28;20269;-89
2020/12/11 12:07:25;;;;;;;18.67;14.40;;;;;;;;;;5060491;28;20269;-89
2020/12/11 12:09:52;;;;;;;21.27;15.20;;;;;;;;;;5060778;28;20227;-90
2020/12/11 12:12:19;;;;;;;20.67;15.15;;;;;;;;;;5060480;28;20193;-92
2020/12/11 12:14:48;;;;;;;17.40;13.40;;;;;;;;;;5060285;28;20182;-91
2020/12/11 12:17:18;;;;;;;19.13;13.57;;;;;;;;;;5060387;28;20453;-89
2020/12/11 12:19:47;;;;;;;21.25;13.60;;;;;;;;;;5060141;28;20655;-88
2020/12/11 12:23:01;;;;;;;18.20;12.98;;;;;;;;;;5060572;28;20224;-87
2020/12/11 12:28:30;;;;;;;17.52;12.50;;;;;;;;;;5060158;28;20189;-88
2020/12/11 12:30:57;;;;;;;17.00;13.40;;;;;;;;;;5060278;28;20559;-89
2020/12/11 12:39:30;;;;;;;19.27;14.07;;;;;;;;;;5059699;28;20198;-92
2020/12/11 12:44:42;;;;;;;18.45;13.70;;;;;;;;;;5059329;28;20185;-87
2020/12/11 12:47:09;;;;;;;18.80;13.82;;;;;;;;;;5060259;28;20211;-91
2020/12/11 12:49:37;;;;;;;17.55;13.65;;;;;;;;;;5059898;28;20224;-90
2020/12/11 12:52:04;;;;;;;20.10;13.80;;;;;;;;;;5059436;28;20186;-89
2020/12/11 12:54:31;;;;;;;18.35;13.38;;;;;;;;;;5059310;28;20198;-88
2020/12/11 12:56:59;;;;;;;18.13;12.35;;;;;;;;;;5059481;28;20200;-87
2020/12/11 12:59:35;;;;;;;18.02;13.65;;;;;;;;;;5059877;28;20552;-88
2020/12/11 13:02:22;;;;;;;19.45;13.60;;;;;;;;;;5059366;28;20186;-86
2020/12/11 13:04:56;;;;;;;24.20;15.95;;;;;;;;;;5059378;28;20201;-90
2020/12/11 13:07:23;;;;;;;18.50;12.98;;;;;;;;;;5059287;28;20201;-89
2020/12/11 13:09:50;;;;;;;17.08;13.05;;;;;;;;;;5058807;28;20183;-86
2020/12/11 13:12:17;;;;;;;19.83;14.05;;;;;;;;;;5058779;28;20178;-89
2020/12/11 13:14:44;;;;;;;18.38;13.25;;;;;;;;;;5058928;28;20280;-90
2020/12/11 13:17:11;;;;;;;18.80;13.27;;;;;;;;;;5059032;28;20489;-90
2020/12/11 13:19:39;;;;;;;18.75;12.68;;;;;;;;;;5059088;28;20236;-90
2020/12/11 13:22:22;;;;;;;17.63;14.05;;;;;;;;;;5059617;28;20194;-89
2020/12/11 13:27:34;;;;;;;21.13;13.77;;;;;;;;;;5058873;28;20187;-91
2020/12/11 13:30:01;;;;;;;19.65;13.95;;;;;;;;;;5059251;28;20259;-87
2020/12/11 13:32:29;;;;;;;17.33;13.27;;;;;;;;;;5058836;28;20204;-90
2020/12/11 13:34:56;;;;;;;21.35;15.35;;;;;;;;;;5058771;28;20178;-87
2020/12/11 13:37:28;;;;;;;16.45;11.55;;;;;;;;;;5059035;28;20198;-88
2020/12/11 13:39:55;;;;;;;20.20;14.27;;;;;;;;;;5059065;28;20227;-90
2020/12/11 13:42:22;;;;;;;18.58;14.13;;;;;;;;;;5059000;28;20174;-87
2020/12/11 13:44:49;;;;;;;17.10;13.05;;;;;;;;;;5058975;28;20546;-87
2020/12/11 13:47:16;;;;;;;17.10;13.23;;;;;;;;;;5058148;28;20182;-91
2020/12/11 13:49:43;;;;;;;17.92;12.30;;;;;;;;;;5058221;28;20210;-92
2020/12/11 13:52:11;;;;;;;18.00;13.30;;;;;;;;;;5058230;28;20540;-90
2020/12/11 13:54:39;;;;;;;15.85;11.68;;;;;;;;;;5058404;28;20186;-88
2020/12/11 13:57:05;;;;;;;16.45;12.52;;;;;;;;;;5058426;28;20239;-90
2020/12/11 13:59:33;;;;;;;16.60;13.00;;;;;;;;;;5058149;28;20272;-89
2020/12/11 14:02:00;;;;;;;15.77;12.48;;;;;;;;;;5059122;28;20201;-92
2020/12/11 14:04:27;;;;;;;16.88;11.38;;;;;;;;;;5058807;28;20211;-90
2020/12/11 14:06:55;;;;;;;16.42;11.77;;;;;;;;;;5059541;28;20182;-88
2020/12/11 14:09:22;;;;;;;17.48;12.02;;;;;;;;;;5059204;28;20391;-88
2020/12/11 14:11:50;;;;;;;19.55;14.27;;;;;;;;;;5058047;28;20174;-87
2020/12/11 14:14:17;;;;;;;25.55;12.95;;;;;;;;;;5058343;28;20508;-91
2020/12/11 14:16:45;;;;;;;19.13;13.02;;;;;;;;;;5058647;28;20197;-91
2020/12/11 14:19:27;;;;;;;17.92;12.55;;;;;;;;;;5058686;28;20313;-88
2020/12/11 14:22:00;;;;;;;15.77;11.73;;;;;;;;;;5057935;28;20224;-91
2020/12/11 14:24:27;;;;;;;17.20;12.00;;;;;;;;;;5060164;28;20522;-92
2020/12/11 14:26:56;;;;;;;17.20;12.00;;;;;;;;;;5062231;28;20218;-87
2020/12/11 14:29:25;;;;;;;15.73;12.00;;;;;;;;;;5062318;28;20282;-90
2020/12/11 14:31:52;;;;;;;14.73;12.63;;;;;;;;;;5062573;28;20280;-89
2020/12/11 14:34:20;;;;;;;18.45;11.93;;;;;;;;;;5061721;28;20243;-87
2020/12/11 14:36:47;;;;;;;14.60;11.75;;;;;;;;;;5061987;28;20192;-87
2020/12/11 14:39:14;;;;;;;16.08;12.60;;;;;;;;;;5061811;28;20487;-87
2020/12/11 14:41:43;;;;;;;14.82;11.63;;;;;;;;;;5062604;28;20208;-88
2020/12/11 14:44:11;;;;;;;17.60;11.95;;;;;;;;;;5062922;28;20186;-88
2020/12/11 14:46:39;;;;;;;13.10;10.38;;;;;;;;;;5061654;28;20540;-91
2020/12/11 14:49:08;;;;;;;15.65;12.07;;;;;;;;;;5061622;28;20473;-93
2020/12/11 14:51:38;;;;;;;13.90;10.93;;;;;;;;;;5062241;28;20219;-92